Time;durP1;ratioP1;P1;durP2;ratioP2;P2;SDS_P1;SDS_P2;PMS_P1;PMS_P2;Temp;Humidity;BMP_temperature;BMP_pressure;BME280_temperature;BME280_humidity;BME280_pressure;Samples;Min_cycle;Max_cycle;Signal;HPM_P1;HPM_P2
2021/09/05 00:02:24;;;;;;;69.40;44.78;;;17.80;99.90;;;;;;5019704;28;20026;-79
2021/09/05 00:04:51;;;;;;;67.47;43.40;;;17.70;99.90;;;;;;5022601;28;20082;-79
2021/09/05 00:07:16;;;;;;;72.45;44.55;;;17.70;99.90;;;;;;5021428;28;20029;-79
2021/09/05 00:09:42;;;;;;;66.45;44.30;;;17.70;99.90;;;;;;5019916;28;20030;-79
2021/09/05 00:12:09;;;;;;;70.35;45.28;;;17.70;99.90;;;;;;5018240;28;20096;-79
2021/09/05 00:14:35;;;;;;;67.90;44.45;;;17.70;99.90;;;;;;5020399;28;20014;-79
2021/09/05 00:17:00;;;;;;;105.10;72.93;;;17.70;99.90;;;;;;5019125;28;20577;-79
2021/09/05 00:19:26;;;;;;;72.18;46.53;;;17.70;99.90;;;;;;5019018;28;20061;-79
2021/09/05 00:21:52;;;;;;;67.53;45.95;;;17.70;99.90;;;;;;5019713;28;20364;-79
2021/09/05 00:24:18;;;;;;;69.38;46.42;;;17.70;99.90;;;;;;5017688;28;20037;-79
2021/09/05 00:26:46;;;;;;;66.32;44.65;;;17.60;99.90;;;;;;5002180;28;20026;-78
2021/09/05 00:29:13;;;;;;;67.93;44.42;;;17.60;99.90;;;;;;4999811;28;20026;-79
2021/09/05 00:31:39;;;;;;;70.70;45.25;;;17.60;99.90;;;;;;5000062;28;20427;-79
2021/09/05 00:34:05;;;;;;;69.45;45.42;;;17.50;99.90;;;;;;5001132;28;20053;-79
2021/09/05 00:36:30;;;;;;;71.43;45.67;;;17.50;99.90;;;;;;4999929;28;20018;-79
2021/09/05 00:38:56;;;;;;;71.82;46.17;;;17.50;99.90;;;;;;4999550;28;20042;-79
2021/09/05 00:41:21;;;;;;;80.80;48.17;;;17.60;99.90;;;;;;4999634;28;20026;-79
2021/09/05 00:44:02;;;;;;;78.45;49.67;;;17.70;99.90;;;;;;5001551;28;20062;-79
2021/09/05 00:46:29;;;;;;;81.40;48.88;;;17.70;99.90;;;;;;5001580;28;20084;-79
2021/09/05 00:48:54;;;;;;;72.50;47.85;;;17.60;99.90;;;;;;4999772;28;20095;-79
2021/09/05 00:51:24;;;;;;;77.85;49.95;;;17.50;99.90;;;;;;4999715;28;20081;-79
2021/09/05 00:53:51;;;;;;;80.82;48.58;;;17.30;99.90;;;;;;4999784;28;20090;-79
2021/09/05 00:56:17;;;;;;;82.65;48.25;;;17.30;99.90;;;;;;5001717;28;20022;-79
2021/09/05 00:58:45;;;;;;;75.07;47.90;;;17.20;99.90;;;;;;5001173;28;20032;-80
2021/09/05 01:01:12;;;;;;;78.57;50.28;;;17.20;99.90;;;;;;5001890;28;20380;-79
2021/09/05 01:03:37;;;;;;;74.20;48.65;;;17.10;99.90;;;;;;4997945;28;20026;-79
2021/09/05 01:06:03;;;;;;;73.82;47.03;;;17.10;99.90;;;;;;4997551;28;20045;-79
2021/09/05 01:08:28;;;;;;;80.43;49.63;;;17.10;99.90;;;;;;4997490;28;20125;-79
2021/09/05 01:10:54;;;;;;;76.05;48.47;;;17.20;99.90;;;;;;4998224;28;20488;-79
2021/09/05 01:13:20;;;;;;;74.00;47.75;;;17.20;99.90;;;;;;4998501;28;20022;-79
2021/09/05 01:15:45;;;;;;;80.43;48.80;;;17.20;99.90;;;;;;4998225;28;20084;-79
2021/09/05 01:18:11;;;;;;;82.80;51.33;;;17.10;99.90;;;;;;4998453;28;20141;-79
2021/09/05 01:20:37;;;;;;;78.75;48.63;;;17.10;99.90;;;;;;4997763;28;20118;-79
2021/09/05 01:23:02;;;;;;;77.30;48.42;;;17.00;99.90;;;;;;4998939;28;20038;-79
2021/09/05 01:25:28;;;;;;;79.28;50.10;;;17.00;99.90;;;;;;4999370;28;20117;-79
2021/09/05 01:28:13;;;;;;;76.10;48.70;;;16.90;99.90;;;;;;4998931;28;20487;-79
2021/09/05 01:30:47;;;;;;;79.38;48.58;;;16.90;99.90;;;;;;4997316;28;20415;-79
2021/09/05 01:33:16;;;;;;;83.97;49.83;;;16.90;99.90;;;;;;4997788;28;20019;-79
2021/09/05 01:35:42;;;;;;;84.50;51.47;;;16.90;99.90;;;;;;4997878;28;20027;-79
2021/09/05 01:38:07;;;;;;;79.60;50.70;;;16.90;99.90;;;;;;4997532;28;20503;-79
2021/09/05 01:40:33;;;;;;;85.13;52.10;;;16.90;99.90;;;;;;4997806;28;20054;-79
2021/09/05 01:42:59;;;;;;;83.75;51.33;;;16.80;99.90;;;;;;4997168;28;20026;-79
2021/09/05 01:45:24;;;;;;;87.97;52.13;;;16.90;99.90;;;;;;4997275;28;20391;-79
2021/09/05 01:47:50;;;;;;;81.55;49.70;;;16.90;99.90;;;;;;4997296;28;20026;-79
2021/09/05 01:50:15;;;;;;;82.15;50.47;;;16.90;99.90;;;;;;4998652;28;20364;-79
2021/09/05 01:52:41;;;;;;;80.18;49.70;;;16.90;99.90;;;;;;4997825;28;20492;-80
2021/09/05 01:55:07;;;;;;;80.80;50.38;;;16.80;99.90;;;;;;4999607;28;20085;-79
2021/09/05 01:57:33;;;;;;;83.93;51.63;;;16.70;99.90;;;;;;4998219;28;20391;-79
2021/09/05 01:59:58;;;;;;;82.93;51.17;;;16.70;99.90;;;;;;4999872;28;20037;-79
2021/09/05 02:02:24;;;;;;;83.68;51.28;;;16.70;99.90;;;;;;4997456;28;20544;-79
2021/09/05 02:04:49;;;;;;;84.10;53.25;;;16.70;99.90;;;;;;4996983;28;20041;-79
2021/09/05 02:07:15;;;;;;;83.65;52.72;;;16.70;99.90;;;;;;4997771;28;20037;-79
2021/09/05 02:09:41;;;;;;;79.47;50.85;;;16.70;99.90;;;;;;4998098;28;20092;-79
2021/09/05 02:12:06;;;;;;;87.90;53.78;;;16.70;99.90;;;;;;4997928;28;20022;-80
2021/09/05 02:14:32;;;;;;;85.20;51.42;;;16.70;99.90;;;;;;4998980;28;20030;-79
2021/09/05 02:16:57;;;;;;;87.43;53.35;;;16.70;99.90;;;;;;4997200;28;20026;-79
2021/09/05 02:19:23;;;;;;;86.05;52.75;;;16.70;99.90;;;;;;4997395;28;20117;-79
2021/09/05 02:21:49;;;;;;;87.30;54.45;;;16.60;99.90;;;;;;4997634;28;20038;-79
2021/09/05 02:24:14;;;;;;;86.78;53.40;;;16.60;99.90;;;;;;4998450;28;20026;-79
2021/09/05 02:26:40;;;;;;;85.30;52.38;;;16.60;99.90;;;;;;4997569;28;20468;-79
2021/09/05 02:29:05;;;;;;;89.38;54.63;;;16.60;99.90;;;;;;4997270;28;20038;-79
2021/09/05 02:31:31;;;;;;;88.55;53.67;;;16.70;99.90;;;;;;4997668;28;20038;-80
2021/09/05 02:33:56;;;;;;;85.88;52.65;;;16.70;99.90;;;;;;4997460;28;20031;-79
2021/09/05 02:36:25;;;;;;;94.82;53.60;;;16.70;99.90;;;;;;4997920;28;20050;-79
2021/09/05 02:38:50;;;;;;;89.63;53.28;;;16.70;99.90;;;;;;4999640;28;20046;-79
2021/09/05 02:41:16;;;;;;;89.97;52.78;;;16.70;99.90;;;;;;4997983;28;20049;-80
2021/09/05 02:43:41;;;;;;;88.00;55.40;;;16.60;99.90;;;;;;4997839;28;20031;-79
2021/09/05 02:46:07;;;;;;;88.82;54.25;;;16.50;99.90;;;;;;4996948;28;20467;-80
2021/09/05 02:48:33;;;;;;;93.40;55.35;;;16.40;99.90;;;;;;4997342;28;20027;-79
2021/09/05 02:50:58;;;;;;;102.03;58.67;;;16.50;99.90;;;;;;4998983;28;20029;-79
2021/09/05 02:53:24;;;;;;;106.85;59.45;;;16.70;99.90;;;;;;4997531;28;20046;-80
2021/09/05 02:55:49;;;;;;;117.70;60.78;;;16.80;99.90;;;;;;4997461;28;20030;-79
2021/09/05 02:58:15;;;;;;;109.70;60.55;;;16.80;99.90;;;;;;4997516;28;20037;-80
2021/09/05 03:00:41;;;;;;;117.55;63.97;;;16.70;99.90;;;;;;4997460;28;20369;-80
2021/09/05 03:03:06;;;;;;;110.78;60.75;;;16.90;99.90;;;;;;4997607;28;20081;-79
2021/09/05 03:05:33;;;;;;;101.28;58.85;;;16.70;99.90;;;;;;4996413;28;20026;-79
2021/09/05 03:07:58;;;;;;;98.32;56.78;;;16.40;99.90;;;;;;4997485;28;20031;-79
2021/09/05 03:10:24;;;;;;;102.95;57.75;;;16.30;99.90;;;;;;4997652;28;20018;-79
2021/09/05 03:12:50;;;;;;;98.03;56.72;;;16.20;99.90;;;;;;4997726;28;20034;-79
2021/09/05 03:15:15;;;;;;;97.70;56.42;;;16.10;99.90;;;;;;4997394;28;20472;-79
2021/09/05 03:17:41;;;;;;;97.07;56.00;;;16.10;99.90;;;;;;5000690;28;20077;-79
2021/09/05 03:20:07;;;;;;;98.25;55.95;;;16.10;99.90;;;;;;4996679;28;20061;-80
2021/09/05 03:22:34;;;;;;;90.63;54.40;;;16.00;99.90;;;;;;4998904;28;20046;-80
2021/09/05 03:25:00;;;;;;;90.90;56.22;;;15.90;99.90;;;;;;4998617;28;20026;-80
2021/09/05 03:27:26;;;;;;;93.65;55.45;;;15.90;99.90;;;;;;5000270;28;20100;-80
2021/09/05 03:29:51;;;;;;;98.93;57.20;;;15.90;99.90;;;;;;5000677;28;20353;-80
2021/09/05 03:32:17;;;;;;;103.68;58.65;;;16.00;99.90;;;;;;4998716;28;20431;-80
2021/09/05 03:34:42;;;;;;;102.25;59.25;;;16.10;99.90;;;;;;4998521;28;20034;-80
2021/09/05 03:37:08;;;;;;;116.32;60.55;;;16.20;99.90;;;;;;5000356;28;20042;-80
2021/09/05 03:39:34;;;;;;;109.65;58.85;;;16.30;99.90;;;;;;4999237;28;20018;-79
2021/09/05 03:41:59;;;;;;;102.60;58.47;;;16.20;99.90;;;;;;4999308;28;20099;-79
2021/09/05 03:44:25;;;;;;;102.45;55.90;;;16.00;99.90;;;;;;4999268;28;20034;-80
2021/09/05 03:46:50;;;;;;;97.40;56.38;;;16.00;99.90;;;;;;4998099;28;20030;-80
2021/09/05 03:49:16;;;;;;;99.85;57.30;;;15.90;99.90;;;;;;4996773;28;20030;-80
2021/09/05 03:51:42;;;;;;;96.10;56.08;;;15.90;99.90;;;;;;4993256;28;20043;-80
2021/09/05 03:54:07;;;;;;;98.63;56.60;;;15.80;99.90;;;;;;4993977;28;20325;-79
2021/09/05 03:56:33;;;;;;;97.03;57.05;;;15.90;99.90;;;;;;4994960;28;20602;-79
2021/09/05 03:59:02;;;;;;;99.20;56.42;;;15.80;99.90;;;;;;4997465;28;20490;-80
2021/09/05 04:01:29;;;;;;;95.95;56.67;;;15.80;99.90;;;;;;4996993;28;20050;-80
2021/09/05 04:03:54;;;;;;;105.30;59.33;;;15.80;99.90;;;;;;4997779;28;20521;-80
2021/09/05 04:06:20;;;;;;;115.55;60.47;;;15.80;99.90;;;;;;4995451;28;20030;-80
2021/09/05 04:08:49;;;;;;;120.57;63.47;;;16.10;99.90;;;;;;4995005;28;20554;-80
2021/09/05 04:11:15;;;;;;;125.47;65.88;;;16.20;99.90;;;;;;4995859;28;20125;-80
2021/09/05 04:13:41;;;;;;;130.63;64.55;;;16.20;99.90;;;;;;4996141;28;20054;-80
2021/09/05 04:16:06;;;;;;;114.30;60.40;;;16.30;99.90;;;;;;4996300;28;20383;-80
2021/09/05 04:18:32;;;;;;;117.43;61.40;;;16.00;99.90;;;;;;4996571;28;20030;-80
2021/09/05 04:20:58;;;;;;;126.25;63.08;;;16.00;99.90;;;;;;4996182;28;20026;-81
2021/09/05 04:23:24;;;;;;;121.85;61.63;;;16.00;99.90;;;;;;4995969;28;20476;-80
2021/09/05 04:25:49;;;;;;;115.05;61.25;;;15.90;99.90;;;;;;4997121;28;20164;-80
2021/09/05 04:28:15;;;;;;;104.63;57.97;;;15.80;99.90;;;;;;4997447;28;20023;-80
2021/09/05 04:30:40;;;;;;;110.70;58.78;;;15.70;99.90;;;;;;4997511;28;20022;-80
2021/09/05 04:33:06;;;;;;;103.35;57.70;;;15.60;99.90;;;;;;4997775;28;20408;-80
2021/09/05 04:35:32;;;;;;;109.10;59.35;;;15.60;99.90;;;;;;4998434;28;20046;-80
2021/09/05 04:37:57;;;;;;;107.25;58.45;;;15.50;99.90;;;;;;4999348;28;20433;-80
2021/09/05 04:40:23;;;;;;;105.15;57.75;;;15.50;99.90;;;;;;5000731;28;20388;-80
2021/09/05 04:42:49;;;;;;;111.20;58.95;;;15.50;99.90;;;;;;5003231;28;20026;-80
2021/09/05 04:45:15;;;;;;;112.65;58.25;;;15.70;99.90;;;;;;5001504;28;20027;-80
2021/09/05 04:47:40;;;;;;;115.68;59.60;;;15.80;99.90;;;;;;5000914;28;20027;-80
2021/09/05 04:50:06;;;;;;;102.95;57.58;;;15.80;99.90;;;;;;5001170;28;20066;-80
2021/09/05 04:52:32;;;;;;;99.43;56.58;;;15.70;99.90;;;;;;5002726;28;20058;-81
2021/09/05 04:54:59;;;;;;;89.63;54.28;;;15.60;99.90;;;;;;5001832;28;20047;-80
2021/09/05 04:57:25;;;;;;;85.45;51.80;;;15.50;99.90;;;;;;5001731;28;20057;-81
2021/09/05 04:59:51;;;;;;;84.47;52.38;;;15.50;99.90;;;;;;5000992;28;20022;-80
2021/09/05 05:02:16;;;;;;;83.97;49.45;;;15.40;99.90;;;;;;5000594;28;20034;-80
2021/09/05 05:04:42;;;;;;;81.82;50.63;;;15.40;99.90;;;;;;5001142;28;20338;-80
2021/09/05 05:07:09;;;;;;;79.32;49.00;;;15.40;99.90;;;;;;5001308;28;20031;-80
2021/09/05 05:09:35;;;;;;;82.45;50.05;;;15.40;99.90;;;;;;4996405;28;20509;-79
2021/09/05 05:12:00;;;;;;;80.93;49.38;;;15.50;99.90;;;;;;4997967;28;20026;-79
2021/09/05 05:14:26;;;;;;;80.05;49.53;;;15.40;99.90;;;;;;4996746;28;20031;-79
2021/09/05 05:16:51;;;;;;;80.85;49.75;;;15.50;99.90;;;;;;4997479;28;20058;-79
2021/09/05 05:19:17;;;;;;;81.72;49.90;;;15.40;99.90;;;;;;4997591;28;20602;-79
2021/09/05 05:21:43;;;;;;;77.65;48.15;;;15.50;99.90;;;;;;4997847;28;20109;-79
2021/09/05 05:24:08;;;;;;;77.53;47.85;;;15.50;99.90;;;;;;4999862;28;20030;-79
2021/09/05 05:26:34;;;;;;;79.75;47.75;;;15.50;99.90;;;;;;5000062;28;20442;-79
2021/09/05 05:29:00;;;;;;;76.78;47.80;;;15.60;99.90;;;;;;4997806;28;20023;-79
2021/09/05 05:31:25;;;;;;;77.65;48.53;;;15.60;99.90;;;;;;4997619;28;20022;-78
2021/09/05 05:33:51;;;;;;;80.15;47.13;;;15.60;99.90;;;;;;4997597;28;20053;-79
2021/09/05 05:36:17;;;;;;;78.65;47.47;;;15.70;99.90;;;;;;4997053;28;20019;-79
2021/09/05 05:38:43;;;;;;;77.10;47.63;;;15.80;99.90;;;;;;4997502;28;20034;-79
2021/09/05 05:41:09;;;;;;;71.70;45.65;;;15.80;99.90;;;;;;4998821;28;20494;-78
2021/09/05 05:43:35;;;;;;;72.00;46.25;;;15.80;99.90;;;;;;4999578;28;20026;-79
2021/09/05 05:46:01;;;;;;;77.57;46.28;;;15.90;99.90;;;;;;4999038;28;20062;-79
2021/09/05 05:48:27;;;;;;;71.40;45.40;;;16.00;99.90;;;;;;4997380;28;20030;-79
2021/09/05 05:50:53;;;;;;;68.63;45.65;;;16.00;99.90;;;;;;4997661;28;20026;-79
2021/09/05 05:53:22;;;;;;;75.97;46.70;;;16.00;99.90;;;;;;4998904;28;20026;-79
2021/09/05 05:55:47;;;;;;;83.35;50.08;;;16.10;99.90;;;;;;4999668;28;20105;-79
2021/09/05 05:58:13;;;;;;;83.07;50.92;;;16.30;99.90;;;;;;4998731;28;20069;-80
2021/09/05 06:00:39;;;;;;;86.57;50.67;;;16.30;99.90;;;;;;5000240;28;20026;-80
2021/09/05 06:03:08;;;;;;;88.47;49.60;;;16.20;99.90;;;;;;4982938;28;20031;-79
2021/09/05 06:05:34;;;;;;;87.82;49.88;;;16.10;99.90;;;;;;4998230;28;20076;-79
2021/09/05 06:08:03;;;;;;;76.35;48.17;;;16.10;99.90;;;;;;4997797;28;20026;-79
2021/09/05 06:10:30;;;;;;;73.55;46.50;;;16.00;99.90;;;;;;4998341;28;20033;-79
2021/09/05 06:12:56;;;;;;;76.68;45.92;;;16.00;99.90;;;;;;4997119;28;20125;-79
2021/09/05 06:15:21;;;;;;;70.65;44.72;;;16.00;99.90;;;;;;4996888;28;20129;-79
2021/09/05 06:17:47;;;;;;;71.15;44.38;;;16.10;99.90;;;;;;4997756;28;20034;-79
2021/09/05 06:20:13;;;;;;;71.40;43.90;;;16.40;99.90;;;;;;4996513;28;20109;-79
2021/09/05 06:22:39;;;;;;;67.63;42.50;;;16.50;99.90;;;;;;4997514;28;20484;-80
2021/09/05 06:25:05;;;;;;;69.18;45.17;;;16.70;99.90;;;;;;4997136;28;20032;-79
2021/09/05 06:27:31;;;;;;;68.53;44.28;;;17.00;99.90;;;;;;4998688;28;20031;-78
2021/09/05 06:29:56;;;;;;;66.25;42.80;;;17.10;99.90;;;;;;4998179;28;20026;-79
2021/09/05 06:32:22;;;;;;;67.40;43.33;;;17.00;99.90;;;;;;4994204;28;20081;-78
2021/09/05 06:34:48;;;;;;;68.85;44.20;;;17.10;99.90;;;;;;4994113;28;20076;-78
2021/09/05 06:37:13;;;;;;;65.45;43.22;;;17.30;99.90;;;;;;4993891;28;20030;-78
2021/09/05 06:39:39;;;;;;;63.58;43.33;;;17.20;99.90;;;;;;4994416;28;20033;-78
2021/09/05 06:42:05;;;;;;;68.30;42.90;;;17.30;99.90;;;;;;4994840;28;20109;-78
2021/09/05 06:44:30;;;;;;;66.10;42.00;;;17.30;99.90;;;;;;4994822;28;20089;-78
2021/09/05 06:46:56;;;;;;;67.90;42.47;;;17.40;99.90;;;;;;4993773;28;20038;-78
2021/09/05 06:49:22;;;;;;;65.38;43.33;;;17.40;99.90;;;;;;4993872;28;20025;-79
2021/09/05 06:51:47;;;;;;;69.50;42.83;;;17.30;99.90;;;;;;4995636;28;20126;-79
2021/09/05 06:54:13;;;;;;;67.38;42.72;;;17.40;99.90;;;;;;4996403;28;20054;-79
2021/09/05 06:56:39;;;;;;;62.85;43.30;;;17.40;99.90;;;;;;4996407;28;20155;-79
2021/09/05 06:59:05;;;;;;;66.10;43.47;;;17.50;99.90;;;;;;4996130;28;20037;-78
2021/09/05 07:01:32;;;;;;;66.07;42.63;;;17.50;99.90;;;;;;4995280;28;20034;-79
2021/09/05 07:03:58;;;;;;;64.82;42.72;;;17.60;99.90;;;;;;4997277;28;20019;-79
2021/09/05 07:06:23;;;;;;;64.82;42.75;;;17.50;99.90;;;;;;4996422;28;20357;-79
2021/09/05 07:08:49;;;;;;;65.65;43.47;;;17.60;99.90;;;;;;4998758;28;20026;-80
2021/09/05 07:11:15;;;;;;;66.25;43.63;;;17.80;99.90;;;;;;4995695;28;20037;-79
2021/09/05 07:13:40;;;;;;;61.38;41.45;;;17.90;99.90;;;;;;4995625;28;20027;-79
2021/09/05 07:16:07;;;;;;;65.72;42.15;;;18.10;99.90;;;;;;4993472;28;20121;-78
2021/09/05 07:18:33;;;;;;;63.88;41.75;;;18.40;99.90;;;;;;4993595;28;20081;-77
2021/09/05 07:21:00;;;;;;;63.13;42.10;;;18.60;99.90;;;;;;4993781;28;20034;-78
2021/09/05 07:23:28;;;;;;;65.65;42.13;;;18.60;99.90;;;;;;4995638;28;20065;-79
2021/09/05 07:25:57;;;;;;;57.47;39.28;;;18.70;99.90;;;;;;4993432;28;20439;-77
2021/09/05 07:28:23;;;;;;;59.40;40.17;;;18.70;99.90;;;;;;4992678;28;20022;-78
2021/09/05 07:30:48;;;;;;;59.60;40.03;;;18.80;99.90;;;;;;4995896;28;20030;-79
2021/09/05 07:33:14;;;;;;;61.03;40.97;;;19.00;99.90;;;;;;4996547;28;20121;-79
2021/09/05 07:35:40;;;;;;;56.40;38.17;;;19.80;99.90;;;;;;4995602;28;20091;-79
2021/09/05 07:38:06;;;;;;;51.35;35.95;;;20.70;99.90;;;;;;4995379;28;20060;-79
2021/09/05 07:40:31;;;;;;;51.92;35.45;;;21.80;99.90;;;;;;4997895;28;20041;-79
2021/09/05 07:42:57;;;;;;;48.38;35.03;;;22.60;99.90;;;;;;4996382;28;20383;-79
2021/09/05 07:45:23;;;;;;;48.55;34.63;;;23.90;99.90;;;;;;4993287;28;20026;-77
2021/09/05 07:47:48;;;;;;;47.10;35.78;;;24.90;99.90;;;;;;4991902;28;20030;-78
2021/09/05 07:50:14;;;;;;;45.60;35.33;;;25.70;99.90;;;;;;4994895;28;20353;-79
2021/09/05 07:52:40;;;;;;;43.83;33.67;;;26.20;99.90;;;;;;4994578;28;20125;-78
2021/09/05 07:55:05;;;;;;;43.28;32.90;;;26.80;99.90;;;;;;4995418;28;20054;-78
2021/09/05 07:57:31;;;;;;;46.60;34.67;;;26.70;99.90;;;;;;4994001;28;20026;-78
2021/09/05 07:59:57;;;;;;;44.42;34.30;;;27.20;99.90;;;;;;4991949;28;20030;-78
2021/09/05 08:02:22;;;;;;;41.88;33.05;;;27.00;99.90;;;;;;4996010;28;20101;-79
2021/09/05 08:04:48;;;;;;;42.90;33.58;;;27.80;99.90;;;;;;4994341;28;20031;-79
2021/09/05 08:07:14;;;;;;;42.58;33.30;;;27.60;99.90;;;;;;4996303;28;20084;-78
2021/09/05 08:09:40;;;;;;;48.78;35.80;;;28.20;98.70;;;;;;4998668;28;20105;-78
2021/09/05 08:12:06;;;;;;;46.63;35.85;;;27.70;98.80;;;;;;5001045;28;20549;-79
2021/09/05 08:14:33;;;;;;;45.13;36.17;;;26.70;99.90;;;;;;5002813;28;20483;-79
2021/09/05 08:16:58;;;;;;;48.35;35.42;;;25.60;99.90;;;;;;5002145;28;20027;-79
2021/09/05 08:19:24;;;;;;;46.00;36.42;;;24.90;99.90;;;;;;5001719;28;20050;-79
2021/09/05 08:21:50;;;;;;;50.42;37.47;;;24.40;99.90;;;;;;5003491;28;20106;-80
2021/09/05 08:24:16;;;;;;;49.17;35.65;;;23.80;99.90;;;;;;5003699;28;20052;-79
2021/09/05 08:26:45;;;;;;;50.80;36.35;;;23.30;99.90;;;;;;5001908;28;20034;-79
2021/09/05 08:29:11;;;;;;;50.65;37.83;;;22.80;99.90;;;;;;5004329;28;20026;-80
2021/09/05 08:31:37;;;;;;;53.20;37.50;;;22.80;99.90;;;;;;5001046;28;20050;-79
2021/09/05 08:34:03;;;;;;;53.88;37.90;;;22.70;99.90;;;;;;5000184;28;20112;-79
2021/09/05 08:36:31;;;;;;;47.90;35.83;;;22.80;99.90;;;;;;5000254;28;20068;-79
2021/09/05 08:38:57;;;;;;;49.30;34.83;;;23.50;99.90;;;;;;5001200;28;20331;-79
2021/09/05 08:41:26;;;;;;;46.03;33.90;;;24.50;99.90;;;;;;5001316;28;20102;-79
2021/09/05 08:43:52;;;;;;;44.55;32.92;;;25.50;99.90;;;;;;5002128;28;20053;-78
2021/09/05 08:46:19;;;;;;;38.42;30.98;;;26.10;99.90;;;;;;5001597;28;20031;-79
2021/09/05 08:48:48;;;;;;;41.63;32.35;;;26.50;99.90;;;;;;5001205;28;20431;-79
2021/09/05 08:51:14;;;;;;;39.05;31.33;;;26.90;99.90;;;;;;5000476;28;20039;-79
2021/09/05 08:53:40;;;;;;;39.85;31.63;;;27.30;99.90;;;;;;5001108;28;20030;-79
2021/09/05 08:56:06;;;;;;;37.53;30.75;;;27.70;99.40;;;;;;5000818;28;20033;-80
2021/09/05 08:58:32;;;;;;;39.72;30.40;;;28.10;98.90;;;;;;5000487;28;20026;-79
2021/09/05 09:00:58;;;;;;;41.15;31.38;;;28.40;98.10;;;;;;5002078;28;20030;-79
2021/09/05 09:03:25;;;;;;;37.83;30.58;;;28.10;98.20;;;;;;5000484;28;20030;-79
2021/09/05 09:05:54;;;;;;;36.25;29.52;;;28.00;98.40;;;;;;5003903;28;20030;-79
2021/09/05 09:08:22;;;;;;;35.50;29.58;;;28.20;97.80;;;;;;4999750;28;20126;-80
2021/09/05 09:10:49;;;;;;;38.63;29.98;;;28.10;97.80;;;;;;5000908;28;20027;-79
2021/09/05 09:13:30;;;;;;;39.13;30.05;;;28.30;97.70;;;;;;5002293;28;20296;-79
2021/09/05 09:16:03;;;;;;;36.17;29.20;;;28.70;97.50;;;;;;5000841;28;20034;-80
2021/09/05 09:18:30;;;;;;;32.20;28.35;;;28.80;97.10;;;;;;5001216;28;20038;-79
2021/09/05 09:21:04;;;;;;;31.88;26.48;;;29.00;96.20;;;;;;4999579;28;20037;-78
2021/09/05 09:23:35;;;;;;;33.85;28.30;;;28.90;96.50;;;;;;5000891;28;20034;-79
2021/09/05 09:26:03;;;;;;;35.58;28.50;;;28.90;96.70;;;;;;5000013;28;20037;-79
2021/09/05 09:28:44;;;;;;;33.80;27.75;;;29.20;95.50;;;;;;5000215;28;20026;-79
2021/09/05 09:31:27;;;;;;;33.85;27.48;;;29.10;96.00;;;;;;5000377;28;20093;-78
2021/09/05 09:33:56;;;;;;;31.60;25.40;;;29.00;95.80;;;;;;5002469;28;20037;-79
2021/09/05 09:36:27;;;;;;;34.67;28.92;;;29.40;95.40;;;;;;5001771;28;20053;-79
2021/09/05 09:39:01;;;;;;;33.88;27.30;;;29.90;94.10;;;;;;5001141;28;20064;-78
2021/09/05 09:41:32;;;;;;;35.05;28.65;;;30.00;93.70;;;;;;4999874;28;20100;-79
2021/09/05 09:44:03;;;;;;;32.47;27.43;;;29.30;94.40;;;;;;5000341;28;20034;-78
2021/09/05 09:46:31;;;;;;;31.02;25.40;;;29.30;94.80;;;;;;4996097;28;20571;-78
2021/09/05 09:48:59;;;;;;;35.60;28.15;;;29.60;93.90;;;;;;4996418;28;20034;-78
2021/09/05 09:51:25;;;;;;;36.85;28.13;;;30.20;93.30;;;;;;4997393;28;20048;-79
2021/09/05 09:53:53;;;;;;;35.00;27.80;;;29.60;93.40;;;;;;4997103;28;20038;-79
2021/09/05 09:56:20;;;;;;;35.72;27.65;;;29.90;93.00;;;;;;4996645;28;20388;-79
2021/09/05 09:58:47;;;;;;;29.67;24.00;;;29.60;93.20;;;;;;4996956;28;20022;-78
2021/09/05 10:01:15;;;;;;;25.15;22.05;;;29.50;93.60;;;;;;4997417;28;20049;-79
2021/09/05 10:03:43;;;;;;;27.95;23.13;;;30.00;92.90;;;;;;4999065;28;20053;-79
2021/09/05 10:06:15;;;;;;;28.05;22.75;;;30.20;92.00;;;;;;4998804;28;20104;-79
2021/09/05 10:08:43;;;;;;;29.88;24.00;;;30.60;91.90;;;;;;4997223;28;20027;-79
2021/09/05 10:11:13;;;;;;;28.73;22.05;;;30.40;92.00;;;;;;4996059;28;20023;-78
2021/09/05 10:13:40;;;;;;;28.23;22.73;;;30.70;91.70;;;;;;4994530;28;20139;-78
2021/09/05 10:16:07;;;;;;;24.48;21.02;;;30.70;90.80;;;;;;4996110;28;20022;-78
2021/09/05 10:18:34;;;;;;;26.75;21.63;;;30.80;91.00;;;;;;4994869;28;20129;-78
2021/09/05 10:21:01;;;;;;;25.50;22.23;;;29.90;91.10;;;;;;4995942;28;20030;-78
2021/09/05 10:23:31;;;;;;;24.67;21.42;;;29.70;92.00;;;;;;4997398;28;20104;-79
2021/09/05 10:26:08;;;;;;;24.65;21.30;;;30.00;92.30;;;;;;4997167;28;20065;-79
2021/09/05 10:28:36;;;;;;;27.80;20.73;;;30.40;92.20;;;;;;4995803;28;20030;-78
2021/09/05 10:31:02;;;;;;;21.60;18.80;;;30.60;91.30;;;;;;4997003;28;20022;-78
2021/09/05 10:33:54;;;;;;;24.52;20.35;;;31.40;90.60;;;;;;4997000;28;20034;-78
2021/09/05 10:36:23;;;;;;;;;;;31.60;88.30;;;;;;4993283;28;20046;-78
2021/09/05 10:38:50;;;;;;;23.40;20.13;;;31.50;88.80;;;;;;4996296;28;19913;-78
2021/09/05 10:41:26;;;;;;;21.48;18.48;;;31.70;88.10;;;;;;4997449;28;20101;-78
2021/09/05 10:43:58;;;;;;;19.52;17.52;;;31.40;87.20;;;;;;5000212;28;20030;-79
2021/09/05 10:46:30;;;;;;;23.85;20.55;;;31.80;86.00;;;;;;5003562;28;20026;-79
2021/09/05 10:48:58;;;;;;;22.02;18.00;;;32.30;84.00;;;;;;5001747;28;20030;-79
2021/09/05 10:51:40;;;;;;;18.92;16.85;;;32.00;85.00;;;;;;5001382;28;20054;-79
2021/09/05 10:54:07;;;;;;;23.30;18.08;;;31.70;86.10;;;;;;5002345;28;20030;-79
2021/09/05 10:56:41;;;;;;;19.60;17.60;;;32.10;83.10;;;;;;5002425;28;20101;-78
2021/09/05 10:59:06;;;;;;;20.23;17.67;;;32.30;82.30;;;;;;5002319;28;20034;-78
2021/09/05 11:01:34;;;;;;;19.83;17.30;;;32.20;81.50;;;;;;5003569;28;20038;-78
2021/09/05 11:04:24;;;;;;;21.40;17.40;;;32.00;82.90;;;;;;5002854;28;20490;-78
2021/09/05 11:07:11;;;;;;;23.40;20.90;;;31.30;84.50;;;;;;4999164;28;20026;-79
2021/09/05 11:09:42;;;;;;;24.23;18.35;;;31.40;85.40;;;;;;4994042;28;20052;-78
2021/09/05 11:12:07;;;;;;;20.60;17.50;;;31.40;85.70;;;;;;4995420;28;20027;-79
2021/09/05 11:14:48;;;;;;;16.92;15.20;;;32.00;84.40;;;;;;4993246;28;20026;-79
2021/09/05 11:17:25;;;;;;;19.10;17.10;;;32.20;81.90;;;;;;4993810;28;20031;-78
2021/09/05 11:19:58;;;;;;;19.33;17.42;;;32.30;81.40;;;;;;4993719;28;20487;-78
2021/09/05 11:22:26;;;;;;;20.67;17.42;;;32.20;83.40;;;;;;4995743;28;20022;-79
2021/09/05 11:25:08;;;;;;;20.83;16.15;;;32.50;81.70;;;;;;4993748;28;20076;-78
2021/09/05 11:27:35;;;;;;;17.73;14.93;;;33.10;81.00;;;;;;4993604;28;20026;-78
2021/09/05 11:30:03;;;;;;;15.68;13.75;;;33.10;78.50;;;;;;4995875;28;20026;-78
2021/09/05 11:32:28;;;;;;;16.70;14.77;;;32.70;79.50;;;;;;4994116;28;20018;-79
2021/09/05 11:34:56;;;;;;;19.25;15.90;;;32.90;78.00;;;;;;4994888;28;20357;-78
2021/09/05 11:37:40;;;;;;;16.45;14.68;;;32.90;77.40;;;;;;4996802;28;20030;-79
2021/09/05 11:40:19;;;;;;;17.33;14.52;;;33.00;78.40;;;;;;4996917;28;20438;-80
2021/09/05 11:42:51;;;;;;;19.77;15.13;;;32.90;79.90;;;;;;4995809;28;20488;-79
2021/09/05 11:45:19;;;;;;;19.63;15.77;;;32.90;79.70;;;;;;4997513;28;20030;-79
2021/09/05 11:47:45;;;;;;;18.45;15.80;;;33.30;78.40;;;;;;4996625;28;20035;-78
2021/09/05 11:50:15;;;;;;;18.77;13.82;;;32.70;77.60;;;;;;4998255;28;20468;-79
2021/09/05 11:52:42;;;;;;;16.25;14.52;;;32.50;79.20;;;;;;4996301;28;20050;-80
2021/09/05 11:55:14;;;;;;;18.80;15.77;;;32.80;77.40;;;;;;4996730;28;20109;-80
2021/09/05 11:57:53;;;;;;;17.60;15.55;;;33.10;76.30;;;;;;4996965;28;20446;-80
2021/09/05 12:00:38;;;;;;;15.68;13.93;;;33.10;76.90;;;;;;4996211;28;20088;-79
2021/09/05 12:03:09;;;;;;;15.18;12.63;;;33.20;76.70;;;;;;4997501;28;20080;-79
2021/09/05 12:05:36;;;;;;;14.60;13.20;;;33.90;73.60;;;;;;4996975;28;20041;-79
2021/09/05 12:08:03;;;;;;;16.30;14.00;;;34.90;72.60;;;;;;4991674;28;20057;-78
2021/09/05 12:10:31;;;;;;;17.30;13.57;;;33.70;73.40;;;;;;4992973;28;20080;-77
2021/09/05 12:13:23;;;;;;;15.95;12.25;;;33.60;71.90;;;;;;4994041;28;20023;-80
2021/09/05 12:15:49;;;;;;;16.13;12.27;;;33.30;73.30;;;;;;4994296;28;20065;-79
2021/09/05 12:18:20;;;;;;;13.30;11.75;;;33.30;71.20;;;;;;4996130;28;20026;-79
2021/09/05 12:20:49;;;;;;;12.95;11.27;;;33.30;72.40;;;;;;4997147;28;20109;-79
2021/09/05 12:23:28;;;;;;;11.93;10.52;;;33.80;71.70;;;;;;4995402;28;20029;-79
2021/09/05 12:25:56;;;;;;;8.82;7.93;;;34.10;69.40;;;;;;4996933;28;20023;-79
2021/09/05 12:28:32;;;;;;;9.68;8.68;;;34.30;67.20;;;;;;4995370;28;20027;-79